White Plains, Virginia
Current Conditions -  °F | °C
As of 11:36 AM on Wednesday 26 Nov 2014 (Local Time) from KAVC Reporting Station
Overcast Overcast  
Wind Chill: 35°   Ceiling: 600
Heat Index: 42°   Visibility: 10mi
Dew Point: 40°   Wind: 10mph
Humidity: 95%   Direction: 20°NNE
Pressure: 29.92"   Gusts: 18mph
Location:  36.62°N, 77.93°W
Report Text: KAVC 261636Z AUTO 02009G16KT 10SM OVC006 05/05 A2992 RMK AO2 P0001 T00530045
Loading
Personal Weather Stations






























Interactive Weather Map New forecast layout! Learn more

10-Day Weather Forecast

Advertisements
Track Severe Weather on mobile